Time;durP1;ratioP1;P1;durP2;ratioP2;P2;SDS_P1;SDS_P2;PMS_P1;PMS_P2;Temp;Humidity;BMP_temperature;BMP_pressure;BME280_temperature;BME280_humidity;BME280_pressure;Samples;Min_cycle;Max_cycle;Signal;HPM_P1;HPM_P2
2023/10/05 00:02:08;;;;;;;14.40;5.60;;;;;;;12.11;84.51;101065.72;10255019;28;20061;-77
2023/10/05 00:07:19;;;;;;;14.25;4.57;;;;;;;12.12;84.70;101062.06;10252690;28;20050;-77
2023/10/05 00:12:23;;;;;;;16.30;5.03;;;;;;;12.21;84.48;101068.59;10265125;28;20498;-77
2023/10/05 00:17:30;;;;;;;17.73;4.85;;;;;;;11.97;84.83;101067.75;10248048;28;20396;-77
2023/10/05 00:22:34;;;;;;;13.18;5.03;;;;;;;12.28;84.36;101066.25;10254004;28;20073;-77
2023/10/05 00:27:37;;;;;;;17.00;5.57;;;;;;;12.32;84.34;101057.88;10255394;28;20066;-77
2023/10/05 00:32:47;;;;;;;13.43;4.60;;;;;;;12.32;84.66;101067.78;10253632;28;20046;-77
2023/10/05 00:37:50;;;;;;;18.10;5.38;;;;;;;12.42;84.16;101057.13;10251307;28;20493;-77
2023/10/05 00:42:55;;;;;;;20.33;5.40;;;;;;;12.37;84.91;101050.28;10253426;28;20047;-76
2023/10/05 00:48:09;;;;;;;16.70;5.72;;;;;;;12.37;85.00;101066.44;10249095;28;20711;-76
2023/10/05 00:53:13;;;;;;;17.27;6.05;;;;;;;12.40;85.17;101068.06;10250757;28;20081;-77
2023/10/05 00:58:17;;;;;;;15.82;5.15;;;;;;;12.32;85.27;101068.63;10257432;28;20047;-77
2023/10/05 01:03:33;;;;;;;16.20;5.95;;;;;;;12.43;85.20;101056.16;10265471;28;20047;-75
2023/10/05 01:08:49;;;;;;;14.73;5.40;;;;;;;12.44;85.00;101057.88;10247588;28;20120;-77
2023/10/05 01:13:57;;;;;;;20.77;6.05;;;;;;;12.17;85.67;101065.25;10253583;28;20174;-77
2023/10/05 01:19:07;;;;;;;14.73;5.65;;;;;;;12.46;84.48;101062.16;10259039;28;20614;-78
2023/10/05 01:24:12;;;;;;;10.60;5.13;;;;;;;12.60;84.06;101056.53;10248512;28;20063;-77
2023/10/05 01:29:16;;;;;;;13.60;4.90;;;;;;;12.36;85.18;101059.31;10253323;28;20047;-77
2023/10/05 01:34:20;;;;;;;16.33;4.80;;;;;;;12.37;84.59;101052.13;10248905;28;20065;-77
2023/10/05 01:39:26;;;;;;;13.02;4.47;;;;;;;12.43;83.88;101045.41;10250300;28;20050;-76
2023/10/05 01:44:29;;;;;;;12.65;4.30;;;;;;;12.44;84.35;101058.72;10250954;28;20076;-75
2023/10/05 01:49:32;;;;;;;10.73;4.40;;;;;;;12.42;84.33;101035.56;10247596;28;20586;-77
2023/10/05 01:54:37;;;;;;;16.95;4.40;;;;;;;12.58;83.66;101058.50;10249979;28;20045;-78
2023/10/05 01:59:40;;;;;;;12.70;3.78;;;;;;;12.28;84.55;101058.19;10249997;28;20380;-77
2023/10/05 02:04:44;;;;;;;12.38;3.35;;;;;;;12.33;84.09;101042.56;10248248;28;21302;-77
2023/10/05 02:09:49;;;;;;;13.90;5.35;;;;;;;12.52;83.34;101032.03;10248919;28;20109;-77
2023/10/05 02:14:54;;;;;;;17.67;4.35;;;;;;;12.12;84.76;101035.13;10248801;28;20051;-77
2023/10/05 02:19:58;;;;;;;9.43;4.05;;;;;;;12.56;82.17;101028.13;10248579;28;20059;-78
2023/10/05 02:25:07;;;;;;;16.02;2.97;;;;;;;12.23;83.28;101042.41;10258344;28;20058;-77
2023/10/05 02:30:13;;;;;;;13.18;4.05;;;;;;;12.50;82.58;101007.03;10246234;28;20138;-77
2023/10/05 02:35:24;;;;;;;10.75;4.53;;;;;;;12.24;84.04;101019.84;10246534;28;20089;-77
2023/10/05 02:40:35;;;;;;;11.25;4.28;;;;;;;12.11;85.12;101024.47;10242156;28;20105;-77
2023/10/05 02:45:41;;;;;;;13.85;4.22;;;;;;;12.11;84.91;101024.47;10248834;28;20080;-77
2023/10/05 02:50:46;;;;;;;17.13;4.18;;;;;;;12.34;83.76;101020.00;10249544;28;20414;-77
2023/10/05 02:55:54;;;;;;;11.20;4.22;;;;;;;12.10;84.81;101020.94;10247535;28;20050;-76
2023/10/05 03:00:58;;;;;;;21.40;4.93;;;;;;;12.09;84.76;101016.50;10246615;28;20140;-77
2023/10/05 03:06:02;;;;;;;6.32;3.30;;;;;;;11.96;85.86;101010.38;10246563;28;20058;-77
2023/10/05 03:11:08;;;;;;;13.40;4.65;;;;;;;12.33;83.73;101021.84;10247893;28;20058;-77
2023/10/05 03:16:16;;;;;;;14.13;4.13;;;;;;;12.01;85.41;101031.53;10253628;28;20055;-77
2023/10/05 03:21:22;;;;;;;11.00;3.85;;;;;;;11.98;85.83;101021.84;10240532;28;20134;-77
2023/10/05 03:26:28;;;;;;;14.90;4.45;;;;;;;12.31;84.21;101010.34;10250194;28;20071;-77
2023/10/05 03:31:32;;;;;;;11.02;4.65;;;;;;;12.00;86.34;101019.06;10261454;28;20087;-77
2023/10/05 03:36:36;;;;;;;12.02;4.57;;;;;;;12.06;86.30;101021.28;10258577;28;21548;-77
2023/10/05 03:41:40;;;;;;;12.93;5.18;;;;;;;12.06;86.34;101032.03;10256749;28;21174;-77
2023/10/05 03:46:46;;;;;;;21.13;5.45;;;;;;;12.02;87.14;101023.34;10251698;28;21824;-77
2023/10/05 03:51:50;;;;;;;14.88;4.22;;;;;;;12.19;85.59;101018.50;10255850;28;20062;-76
2023/10/05 03:57:10;;;;;;;11.85;4.80;;;;;;;12.15;86.33;101034.03;10259494;28;20074;-78
2023/10/05 04:02:18;;;;;;;11.40;6.57;;;;;;;12.34;85.39;101041.56;10251884;28;20139;-77
2023/10/05 04:07:22;;;;;;;12.20;4.97;;;;;;;12.07;86.42;101037.31;10250843;28;20205;-78
2023/10/05 04:12:26;;;;;;;8.90;4.45;;;;;;;11.77;88.61;101028.91;10254570;28;20418;-77
2023/10/05 04:17:33;;;;;;;5.97;3.55;;;;;;;11.67;88.67;101013.44;10257552;28;20051;-77
2023/10/05 04:22:38;;;;;;;4.97;2.47;;;;;;;11.97;86.69;101011.22;10253832;28;20054;-77
2023/10/05 04:27:42;;;;;;;10.82;3.33;;;;;;;12.09;86.09;101002.19;10253232;28;20047;-77
2023/10/05 04:32:45;;;;;;;9.20;3.35;;;;;;;12.14;86.10;100998.16;10252182;28;20471;-77
2023/10/05 04:37:49;;;;;;;9.13;3.40;;;;;;;11.88;88.82;101016.34;10256044;28;20050;-77
2023/10/05 04:42:58;;;;;;;8.40;3.42;;;;;;;11.77;89.61;101024.38;10258501;28;20542;-77
2023/10/05 04:48:03;;;;;;;11.63;4.97;;;;;;;11.72;92.33;101026.56;10256035;28;20073;-78
2023/10/05 04:53:09;;;;;;;15.82;5.40;;;;;;;11.32;97.15;101039.44;10254722;28;20062;-77
2023/10/05 04:58:21;;;;;;;12.75;5.30;;;;;;;11.19;100.00;101040.34;10253301;28;20054;-77
2023/10/05 05:03:48;;;;;;;18.50;8.38;;;;;;;11.32;100.00;101037.59;10246068;28;20046;-77
2023/10/05 05:08:51;;;;;;;16.77;8.98;;;;;;;11.38;100.00;101028.22;10262064;28;20047;-77
2023/10/05 05:13:55;;;;;;;18.17;8.93;;;;;;;11.60;99.80;101024.78;10258637;28;20051;-77
2023/10/05 05:18:59;;;;;;;22.75;11.23;;;;;;;11.33;100.00;101027.72;10259459;28;20055;-77
2023/10/05 05:24:03;;;;;;;16.88;10.95;;;;;;;11.37;100.00;101030.06;10255404;28;20068;-77
2023/10/05 05:29:09;;;;;;;22.27;9.50;;;;;;;11.40;99.56;101028.97;10251844;28;20051;-77
2023/10/05 05:34:11;;;;;;;21.45;9.15;;;;;;;11.13;100.00;101031.84;10251032;28;20058;-76
2023/10/05 05:39:14;;;;;;;25.67;10.90;;;;;;;11.25;99.96;101039.91;10247411;28;20082;-77
2023/10/05 05:44:21;;;;;;;23.35;11.05;;;;;;;11.44;97.87;101041.22;10248005;28;20050;-77
2023/10/05 05:49:24;;;;;;;25.27;12.57;;;;;;;11.46;96.38;101037.47;10251820;28;20754;-78
2023/10/05 05:54:30;;;;;;;17.70;8.65;;;;;;;11.57;94.39;101036.63;10252423;28;20510;-76
2023/10/05 05:59:35;;;;;;;21.95;10.90;;;;;;;11.81;92.81;101036.63;10265244;28;20062;-77
2023/10/05 06:04:40;;;;;;;23.40;9.98;;;;;;;11.45;94.56;101035.72;10263488;28;20522;-77
2023/10/05 06:09:45;;;;;;;24.17;9.32;;;;;;;11.66;92.94;101046.72;10259751;28;20129;-78
2023/10/05 06:14:50;;;;;;;29.77;11.68;;;;;;;11.76;92.37;101038.78;10251794;28;20507;-77
2023/10/05 06:19:53;;;;;;;17.25;9.40;;;;;;;11.69;91.80;101051.00;10248957;28;20178;-78
2023/10/05 06:24:56;;;;;;;23.48;10.85;;;;;;;11.92;90.90;101065.41;10249999;28;20053;-77
2023/10/05 06:30:00;;;;;;;22.05;10.20;;;;;;;11.93;90.93;101065.31;10253848;28;20078;-77
2023/10/05 06:35:07;;;;;;;19.52;9.80;;;;;;;11.74;91.71;101059.59;10250611;28;20066;-76
2023/10/05 06:40:13;;;;;;;23.13;10.23;;;;;;;11.96;90.16;101061.53;10253372;28;20655;-77
2023/10/05 06:45:20;;;;;;;38.75;11.48;;;;;;;11.51;92.35;101050.53;10246791;28;20528;-77
2023/10/05 06:50:23;;;;;;;25.80;9.40;;;;;;;11.63;91.73;101046.97;10249846;28;20683;-77
2023/10/05 06:55:26;;;;;;;24.02;10.05;;;;;;;11.59;92.74;101056.22;10248365;28;20046;-77
2023/10/05 07:00:31;;;;;;;13.30;8.00;;;;;;;11.71;91.04;101062.50;10245408;28;20545;-77
2023/10/05 07:05:34;;;;;;;13.63;9.82;;;;;;;11.98;90.46;101069.47;10255098;28;20414;-77
2023/10/05 07:10:37;;;;;;;20.00;9.68;;;;;;;12.22;88.99;101075.66;10257694;28;20065;-77
2023/10/05 07:15:41;;;;;;;16.05;7.45;;;;;;;12.23;87.82;101093.56;10255657;28;20485;-76
2023/10/05 07:20:44;;;;;;;14.88;6.20;;;;;;;12.35;87.65;101076.47;10256348;28;20434;-77
2023/10/05 07:25:47;;;;;;;10.30;6.57;;;;;;;12.71;85.43;101079.97;10255598;28;20901;-76
2023/10/05 07:30:52;;;;;;;11.10;5.22;;;;;;;12.47;86.26;101098.91;10253600;28;20066;-77
2023/10/05 07:35:56;;;;;;;10.20;5.35;;;;;;;12.30;87.33;101084.06;10254693;28;20466;-77
2023/10/05 07:41:03;;;;;;;16.33;5.97;;;;;;;12.71;86.05;101101.53;10253694;28;20531;-77
2023/10/05 07:46:07;;;;;;;22.90;5.25;;;;;;;12.61;86.82;101105.91;10245118;28;20046;-77
2023/10/05 07:51:15;;;;;;;12.02;5.88;;;;;;;12.43;86.85;101115.44;10255630;28;20058;-78
2023/10/05 07:56:19;;;;;;;11.32;5.35;;;;;;;13.05;83.34;101129.38;10261815;28;20055;-76
2023/10/05 08:01:23;;;;;;;13.98;6.32;;;;;;;13.18;83.82;101126.53;10247436;28;20128;-77
2023/10/05 08:06:26;;;;;;;11.85;4.80;;;;;;;13.39;83.39;101134.78;10254007;28;20062;-77
2023/10/05 08:11:29;;;;;;;14.80;5.13;;;;;;;13.59;80.56;101125.06;10249934;28;20055;-75
2023/10/05 08:16:34;;;;;;;9.20;4.15;;;;;;;13.59;80.59;101114.25;10253110;28;20519;-77
2023/10/05 08:21:38;;;;;;;13.73;4.85;;;;;;;13.76;81.11;101117.41;10256205;28;20057;-76
2023/10/05 08:26:42;;;;;;;16.95;4.22;;;;;;;13.70;80.52;101132.28;10249716;28;21033;-77
2023/10/05 08:31:46;;;;;;;14.15;4.88;;;;;;;14.16;79.69;101140.09;10260993;28;20185;-77
2023/10/05 08:36:53;;;;;;;9.48;4.05;;;;;;;13.97;79.26;101141.78;10264672;28;20333;-77
2023/10/05 08:41:57;;;;;;;11.93;3.88;;;;;;;14.29;78.51;101150.72;10262087;28;20051;-77
2023/10/05 08:47:05;;;;;;;9.85;2.92;;;;;;;14.34;78.18;101144.91;10264027;28;20063;-77
2023/10/05 08:52:13;;;;;;;9.98;2.92;;;;;;;13.75;80.89;101145.41;10266753;28;20058;-77
2023/10/05 08:57:17;;;;;;;13.63;3.78;;;;;;;14.69;77.08;101158.16;10267391;28;20054;-77
2023/10/05 09:02:21;;;;;;;7.50;2.40;;;;;;;14.24;77.78;101163.78;10267075;28;21078;-77
2023/10/05 09:07:33;;;;;;;14.15;3.83;;;;;;;14.63;77.37;101160.53;10261178;28;20050;-77
2023/10/05 09:12:37;;;;;;;10.18;3.53;;;;;;;14.79;75.94;101163.63;10275819;28;20050;-76
2023/10/05 09:17:57;;;;;;;14.63;3.40;;;;;;;15.15;74.11;101166.81;10287693;28;20051;-77
2023/10/05 09:23:04;;;;;;;10.52;3.95;;;;;;;15.06;73.63;101160.38;10261981;28;20110;-77
2023/10/05 09:28:13;;;;;;;12.43;3.70;;;;;;;15.20;74.20;101169.97;10252558;28;20054;-76
2023/10/05 09:33:19;;;;;;;17.27;3.78;;;;;;;15.20;73.31;101178.09;10251699;28;20185;-77
2023/10/05 09:38:23;;;;;;;12.05;3.45;;;;;;;15.25;73.07;101194.78;10249760;28;20234;-76
2023/10/05 09:43:30;;;;;;;9.88;3.63;;;;;;;14.35;76.58;101187.19;10250487;28;20051;-77
2023/10/05 09:48:37;;;;;;;9.27;3.80;;;;;;;14.35;76.32;101187.19;10249483;28;20051;-77
2023/10/05 09:53:43;;;;;;;9.57;4.00;;;;;;;15.07;74.60;101197.25;10250448;28;20054;-77
2023/10/05 09:58:46;;;;;;;14.13;3.55;;;;;;;14.62;75.74;101186.72;10249450;28;20061;-77
2023/10/05 10:03:55;;;;;;;13.45;3.95;;;;;;;14.44;77.93;101208.06;10247137;28;20430;-77
2023/10/05 10:09:08;;;;;;;9.35;3.78;;;;;;;15.35;74.29;101206.53;10244943;28;20043;-77
2023/10/05 10:14:22;;;;;;;12.85;3.72;;;;;;;14.95;76.18;101206.44;10253398;28;20718;-76
2023/10/05 10:19:28;;;;;;;10.60;3.53;;;;;;;15.83;72.38;101210.41;10249095;28;20078;-76
2023/10/05 10:24:31;;;;;;;10.48;3.25;;;;;;;15.41;72.29;101210.53;10245651;28;20046;-77
2023/10/05 10:29:42;;;;;;;11.90;4.18;;;;;;;15.19;73.17;101223.25;10247664;28;20046;-77
2023/10/05 10:34:55;;;;;;;11.52;3.00;;;;;;;15.45;73.35;101212.84;10246582;28;20043;-77
2023/10/05 10:39:58;;;;;;;;;;;;;;;15.53;72.11;101205.91;10250128;28;20047;-76
2023/10/05 10:45:01;;;;;;;;;;;;;;;15.14;73.63;101217.38;10259036;28;19926;-76
2023/10/05 10:50:11;;;;;;;10.68;3.78;;;;;;;15.23;72.17;101208.44;10256035;28;19949;-75
2023/10/05 10:55:17;;;;;;;11.15;2.55;;;;;;;15.83;73.07;101210.41;10272924;28;20047;-79
2023/10/05 11:06:04;;;;;;;10.23;3.28;;;;;;;15.52;72.32;101199.59;10185486;29;20126;-76
2023/10/05 11:11:15;;;;;;;8.23;2.78;;;;;;;16.03;69.75;101192.34;10227801;28;20073;-76
2023/10/05 11:16:19;;;;;;;15.25;4.40;;;;;;;15.91;69.50;101205.16;10252081;28;20051;-77
2023/10/05 11:21:26;;;;;;;7.60;2.95;;;;;;;16.29;69.01;101198.97;10254280;28;20112;-77
2023/10/05 11:26:35;;;;;;;12.02;2.58;;;;;;;16.08;68.89;101201.75;10259479;28;20059;-77
2023/10/05 11:32:12;;;;;;;13.52;2.90;;;;;;;16.97;66.82;101219.75;10270019;28;20078;-77
2023/10/05 11:37:44;;;;;;;12.07;2.78;;;;;;;17.20;65.02;101207.59;10263017;28;20065;-77
2023/10/05 11:42:51;;;;;;;9.45;2.63;;;;;;;16.93;67.15;101208.34;10259169;28;20050;-76
2023/10/05 11:47:57;;;;;;;11.30;3.08;;;;;;;17.09;65.22;101196.03;10253452;28;20164;-76
2023/10/05 11:53:06;;;;;;;7.40;2.72;;;;;;;17.10;64.90;101195.84;10251343;28;20047;-77
2023/10/05 11:58:09;;;;;;;7.22;2.45;;;;;;;18.60;61.13;101201.91;10256574;28;20059;-76
2023/10/05 12:03:16;;;;;;;5.90;2.10;;;;;;;18.98;57.59;101186.22;10258827;28;20054;-76
2023/10/05 12:08:23;;;;;;;8.13;2.85;;;;;;;19.37;58.44;101188.50;10265619;28;20051;-76
2023/10/05 12:13:33;;;;;;;10.02;4.57;;;;;;;18.32;62.09;101198.38;10254654;28;20543;-76
2023/10/05 12:18:41;;;;;;;8.38;2.95;;;;;;;17.60;63.10;101192.81;10266528;28;20043;-79
2023/10/05 12:23:47;;;;;;;9.35;2.55;;;;;;;16.68;67.95;101189.97;10256528;28;20049;-77
2023/10/05 12:28:51;;;;;;;10.10;3.17;;;;;;;17.03;66.50;101192.00;10253251;28;20125;-76
2023/10/05 12:33:59;;;;;;;9.52;3.47;;;;;;;17.33;65.24;101199.09;10265884;28;20057;-78
2023/10/05 12:39:14;;;;;;;8.20;2.40;;;;;;;16.44;66.11;101198.53;10261373;28;20042;-75
2023/10/05 12:44:18;;;;;;;8.00;2.78;;;;;;;16.45;68.13;101206.50;10271577;28;20294;-76
2023/10/05 12:49:21;;;;;;;10.45;3.72;;;;;;;16.20;67.28;101199.78;10252145;28;20659;-76
2023/10/05 12:54:29;;;;;;;16.58;3.28;;;;;;;16.44;69.21;101209.38;10252466;28;20109;-76
2023/10/05 12:59:32;;;;;;;15.80;3.53;;;;;;;16.14;68.66;101212.03;10252247;28;20407;-76
2023/10/05 13:04:35;;;;;;;10.50;2.67;;;;;;;16.23;67.97;101218.47;10250379;28;20062;-77
2023/10/05 13:09:40;;;;;;;6.90;3.17;;;;;;;17.02;65.83;101222.88;10251484;28;20133;-76
2023/10/05 13:14:43;;;;;;;16.00;3.53;;;;;;;16.44;68.01;101222.94;10248987;28;20066;-75
2023/10/05 13:19:46;;;;;;;9.70;3.38;;;;;;;16.29;69.02;101217.94;10267252;28;20057;-75
2023/10/05 13:24:55;;;;;;;9.07;3.58;;;;;;;16.27;68.19;101222.66;10260827;28;20145;-76
2023/10/05 13:29:58;;;;;;;8.68;3.05;;;;;;;15.83;70.49;101224.81;10251702;28;20347;-77
2023/10/05 13:35:03;;;;;;;10.25;3.05;;;;;;;15.51;71.57;101213.31;10255088;28;20986;-77
2023/10/05 13:40:08;;;;;;;6.50;3.10;;;;;;;16.35;69.62;101203.81;10259876;28;20614;-77
2023/10/05 13:45:14;;;;;;;11.35;3.88;;;;;;;16.19;69.71;101208.06;10263881;28;20046;-77
2023/10/05 13:50:17;;;;;;;9.93;3.05;;;;;;;15.88;70.77;101210.88;10263083;28;20509;-77
2023/10/05 13:55:23;;;;;;;10.20;3.40;;;;;;;16.07;70.83;101208.19;10270071;28;20506;-77
2023/10/05 14:00:29;;;;;;;10.82;3.20;;;;;;;16.15;70.52;101202.03;10252239;28;20057;-77
2023/10/05 14:05:32;;;;;;;11.60;3.83;;;;;;;16.10;70.73;101210.63;10242001;28;20198;-77
2023/10/05 14:10:37;;;;;;;10.52;3.85;;;;;;;16.16;70.68;101206.50;10251481;28;20047;-76
2023/10/05 14:15:42;;;;;;;11.13;3.40;;;;;;;15.98;71.56;101216.28;10250441;28;20043;-76
2023/10/05 14:20:48;;;;;;;9.23;2.58;;;;;;;16.52;70.07;101204.97;10251262;28;20093;-76
2023/10/05 14:25:53;;;;;;;9.05;2.97;;;;;;;16.13;70.93;101210.34;10252000;28;20046;-77
2023/10/05 14:30:57;;;;;;;11.30;3.08;;;;;;;16.02;71.86;101209.63;10256645;28;20058;-77
2023/10/05 14:36:00;;;;;;;7.60;2.67;;;;;;;15.77;71.82;101205.53;10256675;28;20070;-77
2023/10/05 14:41:05;;;;;;;10.57;2.63;;;;;;;15.96;71.98;101211.00;10261161;28;20062;-77
2023/10/05 14:46:08;;;;;;;9.23;3.30;;;;;;;16.29;69.99;101196.25;10253957;28;20066;-77
2023/10/05 14:51:15;;;;;;;8.15;2.92;;;;;;;16.32;71.28;101198.69;10252049;28;20417;-76
2023/10/05 14:56:20;;;;;;;9.45;3.33;;;;;;;16.44;69.83;101204.81;10255860;28;20592;-76
2023/10/05 15:01:23;;;;;;;10.38;2.95;;;;;;;15.87;71.18;101201.00;10246049;28;20047;-76
2023/10/05 15:06:26;;;;;;;11.90;4.30;;;;;;;15.53;73.28;101209.47;10241398;28;20654;-76
2023/10/05 15:11:31;;;;;;;8.93;3.38;;;;;;;15.56;72.36;101214.59;10240938;28;20042;-75
2023/10/05 15:16:35;;;;;;;10.30;3.08;;;;;;;15.61;73.41;101212.34;10244629;28;20054;-75
2023/10/05 15:21:38;;;;;;;7.22;3.10;;;;;;;15.95;71.92;101227.41;10247637;28;20498;-75
2023/10/05 15:26:43;;;;;;;10.05;3.55;;;;;;;16.08;71.93;101226.16;10214569;28;1104665;-77
2023/10/05 15:31:46;;;;;;;10.20;3.10;;;;;;;16.46;68.79;101229.94;10254430;28;20054;-77
2023/10/05 15:36:54;;;;;;;8.68;2.90;;;;;;;15.69;72.16;101236.03;10252822;28;20054;-75
2023/10/05 15:41:58;;;;;;;12.30;3.80;;;;;;;16.06;71.38;101241.69;10256781;28;20507;-76
2023/10/05 15:47:06;;;;;;;6.22;3.10;;;;;;;15.66;73.42;101231.75;10263360;28;20078;-77
2023/10/05 15:52:10;;;;;;;7.57;3.45;;;;;;;15.47;73.99;101237.94;10256221;28;20199;-76
2023/10/05 15:57:17;;;;;;;8.38;3.75;;;;;;;15.19;76.09;101244.03;10255138;28;20047;-77
2023/10/05 16:02:20;;;;;;;8.38;2.95;;;;;;;15.13;76.55;101247.25;10254570;28;20054;-77
2023/10/05 16:07:25;;;;;;;9.25;3.65;;;;;;;15.45;75.25;101242.63;10253896;28;20054;-77
2023/10/05 16:12:29;;;;;;;12.50;4.10;;;;;;;15.31;75.69;101234.00;10255929;28;20047;-75
2023/10/05 16:17:32;;;;;;;9.52;3.95;;;;;;;15.29;75.44;101249.50;10249816;28;20047;-75
2023/10/05 16:22:37;;;;;;;9.70;3.35;;;;;;;14.98;76.60;101249.47;10259814;28;20096;-76
2023/10/05 16:27:44;;;;;;;11.63;4.05;;;;;;;15.27;75.24;101246.91;10267633;28;21300;-76
2023/10/05 16:32:49;;;;;;;9.52;3.95;;;;;;;14.73;77.82;101248.84;10279130;28;20050;-75
2023/10/05 16:37:52;;;;;;;8.57;3.80;;;;;;;14.77;77.00;101250.28;10273155;28;20066;-77
2023/10/05 16:42:57;;;;;;;7.82;3.67;;;;;;;14.82;77.28;101258.03;10272513;28;20084;-77
2023/10/05 16:48:01;;;;;;;18.08;4.47;;;;;;;14.76;78.41;101270.22;10269710;28;20066;-77
2023/10/05 16:53:05;;;;;;;10.00;4.53;;;;;;;14.60;78.85;101267.97;10260183;28;20073;-77
2023/10/05 16:58:09;;;;;;;9.63;3.90;;;;;;;14.80;78.06;101274.38;10257799;28;20049;-77
2023/10/05 17:03:12;;;;;;;8.18;4.80;;;;;;;14.78;78.47;101264.66;10253682;28;20057;-76
2023/10/05 17:08:17;;;;;;;6.40;3.97;;;;;;;14.95;77.53;101276.78;10256426;28;20042;-77
2023/10/05 17:13:21;;;;;;;11.40;4.68;;;;;;;14.60;78.85;101276.06;10256466;28;20410;-77
2023/10/05 17:18:24;;;;;;;13.30;4.57;;;;;;;14.71;78.75;101275.16;10253741;28;20592;-77
2023/10/05 17:23:27;;;;;;;14.52;3.97;;;;;;;14.52;78.84;101275.84;10252746;28;20065;-77
2023/10/05 17:28:31;;;;;;;11.15;4.38;;;;;;;14.53;79.04;101277.56;10251707;28;20057;-77
2023/10/05 17:33:34;;;;;;;9.85;5.13;;;;;;;14.69;78.47;101290.66;10250661;28;20062;-77
2023/10/05 17:38:37;;;;;;;10.63;4.38;;;;;;;14.49;79.48;101273.41;10254970;28;20053;-77
2023/10/05 17:43:41;;;;;;;12.70;4.80;;;;;;;14.67;78.06;101276.41;10252967;28;20475;-77
2023/10/05 17:48:45;;;;;;;9.35;4.10;;;;;;;14.68;78.45;101275.44;10253585;28;20175;-76
2023/10/05 17:53:47;;;;;;;17.00;4.53;;;;;;;14.40;79.85;101293.09;10246787;28;20050;-77
2023/10/05 17:58:52;;;;;;;11.77;4.90;;;;;;;14.32;80.49;101288.31;10255930;28;21357;-78
2023/10/05 18:03:55;;;;;;;11.88;4.63;;;;;;;14.59;78.86;101293.28;10254566;28;20050;-77
2023/10/05 18:09:02;;;;;;;11.27;4.70;;;;;;;14.50;79.46;101299.44;10257829;28;21001;-77
2023/10/05 18:14:07;;;;;;;12.45;5.25;;;;;;;14.45;79.85;101296.25;10271313;28;20155;-78
2023/10/05 18:19:10;;;;;;;11.25;4.32;;;;;;;14.58;78.96;101301.50;10266726;28;20123;-78
2023/10/05 18:24:14;;;;;;;8.98;4.70;;;;;;;14.41;79.96;101304.78;10268501;28;20577;-77
2023/10/05 18:29:19;;;;;;;11.15;4.63;;;;;;;14.20;80.03;101313.63;10271260;28;20734;-77
2023/10/05 18:34:22;;;;;;;12.05;4.38;;;;;;;14.38;79.93;101303.16;10262605;28;20053;-77
2023/10/05 18:39:26;;;;;;;11.25;4.85;;;;;;;14.25;80.92;101310.53;10273272;28;20142;-78
2023/10/05 18:44:30;;;;;;;14.15;5.55;;;;;;;14.47;79.41;101315.06;10264089;28;20069;-77
2023/10/05 18:49:33;;;;;;;14.05;4.85;;;;;;;13.99;81.84;101318.06;10265196;28;20046;-76
2023/10/05 18:54:36;;;;;;;15.68;5.28;;;;;;;14.31;80.47;101315.44;10253445;28;20042;-77
2023/10/05 18:59:41;;;;;;;16.23;4.95;;;;;;;14.37;79.86;101315.81;10253408;28;21240;-77
2023/10/05 19:04:44;;;;;;;11.68;5.00;;;;;;;14.14;81.45;101319.53;10253097;28;20051;-77
2023/10/05 19:09:47;;;;;;;12.32;4.88;;;;;;;14.32;80.29;101319.88;10249420;28;20047;-77
2023/10/05 19:14:51;;;;;;;13.43;5.03;;;;;;;14.23;81.13;101323.31;10252371;28;20058;-78
2023/10/05 19:19:54;;;;;;;12.82;5.18;;;;;;;14.13;80.63;101331.34;10252175;28;20418;-77
2023/10/05 19:24:57;;;;;;;15.60;5.72;;;;;;;14.26;80.13;101331.16;10254211;28;20113;-77
2023/10/05 19:30:03;;;;;;;12.27;5.05;;;;;;;14.08;81.09;101337.09;10252093;28;20541;-76
2023/10/05 19:35:08;;;;;;;15.30;5.60;;;;;;;14.08;81.17;101336.25;10252825;28;20043;-77
2023/10/05 19:40:12;;;;;;;18.48;5.07;;;;;;;14.15;80.69;101340.16;10262055;28;20065;-77
2023/10/05 19:45:16;;;;;;;8.82;5.03;;;;;;;14.08;81.28;101334.41;10263076;28;20074;-77
2023/10/05 19:50:22;;;;;;;14.65;5.70;;;;;;;14.20;80.36;101326.28;10269142;28;20051;-78
2023/10/05 19:55:27;;;;;;;12.55;5.43;;;;;;;14.20;80.74;101335.22;10269305;28;20448;-77
2023/10/05 20:00:33;;;;;;;12.73;6.30;;;;;;;14.25;80.24;101338.41;10270197;28;20061;-77
2023/10/05 20:05:38;;;;;;;10.02;6.25;;;;;;;14.22;80.61;101340.53;10252675;28;20053;-77
2023/10/05 20:10:41;;;;;;;12.70;6.05;;;;;;;14.30;79.74;101336.22;10270659;28;20057;-77
2023/10/05 20:15:47;;;;;;;12.13;6.82;;;;;;;14.28;80.27;101334.63;10258477;28;20078;-76
2023/10/05 20:20:50;;;;;;;12.90;7.28;;;;;;;14.21;80.20;101334.28;10273369;28;20101;-76
2023/10/05 20:25:53;;;;;;;14.15;6.47;;;;;;;14.02;81.25;101336.75;10273708;28;20054;-77
2023/10/05 20:30:58;;;;;;;11.43;5.97;;;;;;;13.96;80.81;101334.50;10263773;28;20055;-76
2023/10/05 20:36:01;;;;;;;10.40;6.22;;;;;;;14.01;80.60;101338.56;10264569;28;20076;-77
2023/10/05 20:41:05;;;;;;;13.95;7.10;;;;;;;13.94;80.86;101343.63;10253166;28;20051;-77
2023/10/05 20:46:11;;;;;;;17.75;7.00;;;;;;;13.96;80.38;101348.91;10252012;28;20051;-77
2023/10/05 20:51:13;;;;;;;13.95;6.63;;;;;;;13.83;81.23;101356.25;10257175;28;20053;-78
2023/10/05 20:56:16;;;;;;;11.48;6.15;;;;;;;13.68;81.56;101356.47;10246382;28;20047;-77
2023/10/05 21:01:21;;;;;;;11.55;6.10;;;;;;;13.82;80.92;101368.91;10251190;28;20062;-78
2023/10/05 21:06:24;;;;;;;16.65;6.30;;;;;;;13.67;81.61;101375.50;10263695;28;20538;-77
2023/10/05 21:11:27;;;;;;;9.98;4.82;;;;;;;13.96;80.16;101380.44;10263320;28;20671;-76
2023/10/05 21:16:32;;;;;;;11.02;5.78;;;;;;;13.94;79.92;101377.88;10254465;28;20042;-77
2023/10/05 21:21:35;;;;;;;11.38;5.35;;;;;;;13.76;80.24;101382.03;10250129;28;20053;-77
2023/10/05 21:26:40;;;;;;;9.15;4.55;;;;;;;14.02;79.08;101380.81;10251778;28;20042;-77
2023/10/05 21:31:44;;;;;;;10.40;4.60;;;;;;;13.94;79.19;101384.13;10253352;28;20050;-76
2023/10/05 21:36:47;;;;;;;12.10;4.78;;;;;;;13.90;79.36;101377.28;10251326;28;20050;-77
2023/10/05 21:41:50;;;;;;;12.85;4.35;;;;;;;13.61;79.83;101378.69;10251569;28;20043;-77
2023/10/05 21:46:55;;;;;;;12.38;4.53;;;;;;;13.76;79.47;101384.72;10250088;28;20051;-76
2023/10/05 21:51:58;;;;;;;8.75;4.72;;;;;;;14.13;77.29;101388.06;10250049;28;20043;-77
2023/10/05 21:57:01;;;;;;;8.73;4.50;;;;;;;14.05;77.53;101385.97;10247830;28;20059;-78
2023/10/05 22:02:05;;;;;;;10.82;4.30;;;;;;;13.96;77.54;101384.03;10249095;28;20054;-77
2023/10/05 22:07:09;;;;;;;11.85;4.90;;;;;;;13.86;78.12;101381.19;10250199;28;20059;-78
2023/10/05 22:12:13;;;;;;;13.63;5.30;;;;;;;13.82;78.31;101368.91;10251238;28;20411;-77
2023/10/05 22:17:18;;;;;;;10.40;4.63;;;;;;;13.77;78.44;101368.41;10249208;28;20046;-76
2023/10/05 22:22:23;;;;;;;9.23;4.03;;;;;;;13.86;78.23;101369.53;10250858;28;20133;-78
2023/10/05 22:27:26;;;;;;;6.65;4.50;;;;;;;13.75;78.72;101361.41;10250296;28;21287;-76
2023/10/05 22:32:30;;;;;;;11.13;4.40;;;;;;;13.61;79.62;101355.25;10246289;28;21152;-77
2023/10/05 22:37:33;;;;;;;17.45;5.88;;;;;;;13.69;78.94;101360.06;10250261;28;20060;-77
2023/10/05 22:42:36;;;;;;;6.38;3.92;;;;;;;13.73;78.45;101344.47;10253578;28;20051;-76
2023/10/05 22:47:41;;;;;;;11.45;4.18;;;;;;;13.47;79.40;101336.59;10254127;28;21198;-76
2023/10/05 22:52:47;;;;;;;9.02;4.60;;;;;;;13.39;79.99;101356.06;10258220;28;20058;-76
2023/10/05 22:57:58;;;;;;;14.32;4.97;;;;;;;13.23;80.72;101353.66;10258614;28;20510;-77
2023/10/05 23:03:04;;;;;;;10.82;5.30;;;;;;;13.14;81.05;101356.22;10248185;28;20577;-77
2023/10/05 23:08:11;;;;;;;12.70;5.75;;;;;;;13.07;81.05;101355.81;10252633;28;20062;-77
2023/10/05 23:13:17;;;;;;;11.15;5.60;;;;;;;13.12;80.65;101350.94;10258359;28;20050;-76
2023/10/05 23:18:25;;;;;;;11.75;5.40;;;;;;;12.96;81.20;101348.53;10253508;28;20038;-77